Flight Track Log - Related Links

Times and Time Zones

All times are in EDT time to prevent confusion due to time zone crossing. See the BAW1385 flight status page for this flight to view local times or setup timezone preferences in your user account.

Time Position Orientation Groundspeed Altitude Reporting Facility
EDT Latitude Longitude Course Direction KTS MPH feet Rate Location/Type
Fri 02:45:00 AM 53.2819 -2.2021 149° Southeast  Level Estimated
Fri 02:46:00 AM 53.2101 -2.1295 149° Southeast  Level Estimated
Fri 02:47:00 AM 53.1382 -2.0571 149° Southeast  Level Estimated
Fri 02:48:00 AM 53.0662 -1.9850 149° Southeast  Level Estimated
Fri 02:49:00 AM 52.9943 -1.9132 149° Southeast  Level Estimated
Fri 02:50:00 AM 52.9222 -1.8415 149° Southeast  Level Estimated
Fri 02:51:00 AM 52.8502 -1.7701 149° Southeast  Level Estimated
Fri 02:52:00 AM 52.7780 -1.6990 149° Southeast  Level Estimated
Fri 02:53:00 AM 52.7059 -1.6281 149° Southeast  Level Estimated
Fri 02:54:00 AM 52.6337 -1.5574 149° Southeast  Level Estimated
Fri 02:55:00 AM 52.5614 -1.4869 149° Southeast  Level Estimated
Fri 02:56:00 AM 52.4892 -1.4167 149° Southeast  Level Estimated
Fri 02:57:00 AM 52.4168 -1.3467 149° Southeast  Level Estimated
Fri 02:58:00 AM 52.3445 -1.2769 149° Southeast  Level Estimated
Fri 02:59:00 AM 52.2721 -1.2074 150° Southeast  Level Estimated
Fri 03:00:00 AM 52.1996 -1.1381 150° Southeast  Level Estimated
Fri 03:01:00 AM 52.1271 -1.0690 150° Southeast  Level Estimated
Fri 03:02:00 AM 52.0546 -1.0001 150° Southeast  Level Estimated
Fri 03:03:00 AM 52.0237 -0.9709 150° Southeast  Level Estimated
Fri 03:04:00 AM 51.9927 -0.9416 150° Southeast  Level Estimated
Fri 03:05:00 AM 51.9618 -0.9124 150° Southeast  Level Estimated
Fri 03:06:00 AM 51.9308 -0.8833 150° Southeast  Level Estimated
Fri 03:07:00 AM 51.8999 -0.8541 150° Southeast  Level Estimated
Fri 03:08:00 AM 51.8689 -0.8251 150° Southeast  Level Estimated
Fri 03:09:00 AM 51.8380 -0.7960 150° Southeast  Level Estimated
Fri 03:10:00 AM 51.8070 -0.7670 150° Southeast  Level Estimated
Fri 03:11:00 AM 51.7760 -0.7381 150° Southeast  Level Estimated
Fri 03:12:00 AM 51.7450 -0.7092 150° Southeast  Level Estimated
Fri 03:13:00 AM 51.7140 -0.6803 150° Southeast  Level Estimated
Fri 03:14:00 AM 51.6830 -0.6514 150° Southeast  Level Estimated
Fri 03:15:00 AM 51.6520 -0.6226 150° Southeast  Level Estimated
Fri 03:16:00 AM 51.6210 -0.5939 150° Southeast  Level Estimated
Fri 03:17:00 AM 51.5900 -0.5651 150° Southeast  Level Estimated
Fri 03:18:00 AM 51.5589 -0.5364 150° Southeast  Level Estimated
Fri 03:19:00 AM 51.5279 -0.5078 150° Southeast  Level Estimated
Fri 03:20:00 AM 51.4968 -0.4792 150° Southeast  Level Estimated
Fri 03:21:00 AM 51.4775 -0.4614 150° Southeast  Level Estimated
Fri 03:22:00 AM 51.4775 -0.4614 90° East  Level Estimated
Fri 03:23:00 AM 51.4775 -0.4614 90° East  Level Estimated
Fri 03:24:00 AM 51.4775 -0.4614 90° East  Level Estimated
Fri 03:25:00 AM 51.4775 -0.4614 90° East  Level Estimated
Fri 03:26:00 AM 51.4775 -0.4614 90° East  Level Estimated
Fri 03:27:00 AM 51.4775 -0.4614 90° East  Level Estimated
Fri 03:28:00 AM 51.4775 -0.4614 90° East  Level Estimated
Fri 03:29:00 AM 51.4775 -0.4614 90° East  Level Estimated
Fri 03:30:00 AM 51.4775 -0.4614 90° East  Level Estimated
Fri 03:31:00 AM 51.4775 -0.4614 90° East  Level Estimated
Fri 03:32:00 AM 51.4775 -0.4614 90° East  Level Estimated
Fri 03:33:00 AM 51.4775 -0.4614 90° East  Level Estimated
Fri 03:34:00 AM 51.4775 -0.4614 90° East  Level Estimated
Fri 03:35:00 AM 51.4775 -0.4614 90° East  Level Estimated
Fri 03:36:00 AM 51.4775 -0.4614 90° East  Level Estimated
Fri 03:37:00 AM 51.4775 -0.4614 90° East  Level Estimated
Fri 03:38:00 AM 51.4775 -0.4614 90° East  Level Estimated
Fri 03:39:00 AM 51.4775 -0.4614 90° East  Level Estimated

Login

Don't have an account? Register now (free) for customized features, flight alerts, and more!